Flight Track Log - Related Links

Times and Time Zones

All times are in EDT time to prevent confusion due to time zone crossing. See the SWA2122 flight status page for this flight to view local times or setup timezone preferences in your user account.

Time Position Orientation Groundspeed Altitude Reporting Facility
EDT Latitude Longitude Course Direction KTS MPH feet Rate Location/Type
Sat 04:56:14 PM 39.1333 -76.7333 180° South 228 262 5,200  Level Potomac TRACON
Sat 04:57:14 PM 39.0833 -76.6833 142° Southeast 250 288 7,200 2,842 Climbing Potomac TRACON
Sat 04:58:08 PM 39.0333 -76.6167 134° Southeast 293 337 10,600 3,421 Climbing Potomac TRACON
Sat 04:59:08 PM 38.9667 -76.5333 136° Southeast 307 353 13,700 1,650 Climbing Potomac TRACON
Sat 05:00:00 PM 38.6559 -76.8292 189° South  Level Estimated
Sat 05:00:08 PM 38.8833 -76.5000 163° South 308 354 13,900  Level Potomac TRACON
Sat 05:01:08 PM 38.8333 -76.5500 218° Southwest 317 365 14,100 450 Climbing Potomac TRACON
Sat 05:02:08 PM 38.8000 -76.6667 250° West 345 397 14,800 1,340 Climbing Potomac TRACON
Sat 05:02:42 PM 38.7747 -76.7233 240° Southwest 345 397 16,200 2,553 Climbing Washington Center
Sat 05:03:42 PM 38.6847 -76.7458 191° South 364 419 18,800 1,424 Climbing Washington Center
Sat 05:04:40 PM 38.5828 -76.7311 174° South 369 425 19,000 655 Climbing Washington Center
Sat 05:05:41 PM 38.4786 -76.7189 175° South 369 425 20,100 1,884 Climbing Washington Center
Sat 05:06:41 PM 38.3703 -76.7014 173° South 375 432 22,800 2,672 Climbing Washington Center
Sat 05:07:40 PM 38.2536 -76.6836 173° South 387 445 25,400 1,600 Climbing Washington Center
Sat 05:08:41 PM 38.1414 -76.6689 174° South 392 451 26,000 295 Climbing Washington Center
Sat 05:09:42 PM 38.0308 -76.6567 175° South 403 464 26,000 248 Level Washington Center
Sat 05:10:42 PM 37.9206 -76.6394 173° South 403 464 26,500 1,322 Climbing Washington Center
Sat 05:11:40 PM 37.8081 -76.6247 174° South 403 464 28,600 1,866 Climbing Washington Center
Sat 05:12:41 PM 37.6933 -76.6075 173° South 409 471 30,200 1,672 Climbing Washington Center
Sat 05:13:42 PM 37.5725 -76.5928 174° South 423 487 32,000 4,860 Climbing Washington Center
Sat 05:14:42 PM 37.4517 -76.5756 174° South 435 501 40,000 1,815 Climbing Washington Center
Sat 05:15:41 PM 37.3308 -76.5636 176° South 440 506 35,600 -1,462 Descending Washington Center
Sat 05:16:41 PM 37.2097 -76.5644 180° South 445 512 37,100 1,377 Climbing Washington Center
Sat 05:17:43 PM 37.0947 -76.6100 198° South 434 499 38,400 1,261 Climbing Washington Center
Sat 05:18:40 PM 36.9797 -76.6553 197° South 434 499 39,600 814 Climbing Washington Center
Sat 05:19:41 PM 36.8644 -76.7003 197° South 434 499 40,000 200 Climbing Washington Center
Sat 05:20:40 PM 36.7514 -76.7456 198° South 434 499 40,000  Level Washington Center
Sat 05:21:42 PM 36.6361 -76.7903 197° South 434 499 40,000  Level Washington Center
Sat 05:22:41 PM 36.5231 -76.8325 197° South 434 499 40,000  Level Washington Center
Sat 05:23:42 PM 36.4119 -76.8772 198° South 429 494 40,000  Level Washington Center
Sat 05:24:40 PM 36.2969 -76.9192 196° South 429 494 40,000  Level Washington Center
Sat 05:25:41 PM 36.1836 -76.9611 197° South 429 494 40,000  Level Washington Center
Sat 05:26:40 PM 36.0706 -77.0028 197° South 429 494 40,000  Level Washington Center
Sat 05:27:40 PM 35.9572 -77.0469 198° South 429 494 40,000  Level Washington Center
Sat 05:28:41 PM 35.8419 -77.0911 197° South 429 494 40,000  Level Washington Center
Sat 05:29:42 PM 35.7289 -77.1322 196° South 429 494 40,000  Level Washington Center
Sat 05:30:40 PM 35.6261 -77.1686 196° South 429 494 40,000  Level Washington Center
Sat 05:31:41 PM 35.5108 -77.2122 197° South 429 494 40,000  Level Washington Center
Sat 05:32:42 PM 35.3956 -77.2558 197° South 429 494 40,000  Level Washington Center
Sat 05:33:42 PM 35.2800 -77.2967 196° South 434 499 40,000  Level Washington Center
Sat 05:34:40 PM 35.1628 -77.3400 197° South 434 499 40,000  Level Washington Center
Sat 05:35:42 PM 35.0472 -77.3833 197° South 439 505 40,000  Level Washington Center
Sat 05:36:40 PM 34.9319 -77.4264 197° South 439 505 40,000  Level Washington Center
Sat 05:37:41 PM 34.8058 -77.4714 196° South 444 511 40,000  Level Washington Center
Sat 05:38:42 PM 34.7072 -77.5122 199° South 439 505 40,000  Level Washington Center
Sat 05:39:43 PM 34.5917 -77.5547 197° South 434 499 40,000  Level Washington Center
Sat 05:40:41 PM 34.4783 -77.5950 196° South 434 499 40,000  Level Washington Center
Sat 05:41:42 PM 34.3631 -77.6350 196° South 434 499 40,000  Level Washington Center
Sat 05:42:40 PM 34.2517 -77.6750 197° South 434 499 40,000  Level Washington Center
Sat 05:44:39 PM 34.0158 -77.7592 196° South 430 495 40,000  Level Jacksonville Center
Sat 05:45:39 PM 33.9044 -77.7958 195° South 430 495 40,000  Level Jacksonville Center
Sat 05:46:39 PM 33.7875 -77.8425 198° South 435 501 40,000  Level Jacksonville Center
Sat 05:47:39 PM 33.6742 -77.8767 194° South 430 495 40,000  Level Jacksonville Center
Sat 05:48:39 PM 33.5447 -77.9261 198° South 430 495 40,000  Level Jacksonville Center
Sat 05:49:39 PM 33.4272 -77.9678 196° South 430 495 40,000  Level Jacksonville Center
Sat 05:50:39 PM 33.3119 -78.0089 197° South 430 495 40,000  Level Jacksonville Center
Sat 05:51:39 PM 33.1947 -78.0500 196° South 430 495 40,000  Level Jacksonville Center
Sat 05:52:39 PM 33.0794 -78.0908 197° South 430 495 40,000  Level Jacksonville Center
Sat 05:53:39 PM 32.9619 -78.1319 196° South 430 495 40,000  Level Jacksonville Center
Sat 05:54:39 PM 32.8444 -78.1703 195° South 430 495 40,000  Level Jacksonville Center
Sat 05:55:39 PM 32.7311 -78.2108 197° South 430 495 40,000  Level Jacksonville Center
Sat 05:56:39 PM 32.6136 -78.2514 196° South 430 495 40,000  Level Jacksonville Center
Sat 05:57:39 PM 32.4983 -78.2917 196° South 430 495 40,000  Level Jacksonville Center
Sat 05:58:39 PM 32.3828 -78.3319 196° South 430 495 40,000  Level Jacksonville Center
Sat 05:59:39 PM 32.2758 -78.3692 196° South 435 501 40,000  Level Jacksonville Center
Sat 06:00:39 PM 32.1625 -78.4117 198° South 435 501 40,000  Level Jacksonville Center
Sat 06:01:39 PM 32.0447 -78.4492 195° South 435 501 40,000  Level Jacksonville Center
Sat 06:02:39 PM 31.9294 -78.4917 197° South 429 494 40,000  Level Jacksonville Center
Sat 06:03:39 PM 31.8178 -78.5286 196° South 429 494 40,000  Level Jacksonville Center
Sat 06:04:39 PM 31.6983 -78.5683 196° South 434 499 40,000  Level Jacksonville Center
Sat 06:05:39 PM 31.5806 -78.6106 197° South 434 499 40,000  Level Jacksonville Center
Sat 06:06:39 PM 31.4669 -78.6450 194° South 434 499 40,000  Level Jacksonville Center
Sat 06:07:39 PM 31.3475 -78.6892 198° South 434 499 40,000  Level Jacksonville Center
Sat 06:08:39 PM 31.2275 -78.7286 196° South 434 499 40,000  Level Jacksonville Center
Sat 06:09:39 PM 31.1100 -78.7703 197° South 434 499 40,000  Level Jacksonville Center
Sat 06:10:39 PM 30.9942 -78.8069 195° South 439 505 40,000  Level Jacksonville Center
Sat 06:11:39 PM 30.8764 -78.8458 196° South 432 497 40,000  Level Jacksonville Center
Sat 06:12:39 PM 30.7567 -78.8847 196° South 438 504 40,000  Level Jacksonville Center
Sat 06:14:40 PM 30.5233 -78.9622 196° South 432 497 40,000  Level Miami Center
Sat 06:15:40 PM 30.4019 -78.9981 194° South 442 509 40,000  Level Miami Center
Sat 06:16:40 PM 30.2889 -79.0294 193° South 436 502 40,000  Level Miami Center
Sat 06:17:40 PM 30.1611 -79.0606 192° South 444 511 40,000  Level Miami Center
Sat 06:18:40 PM 30.0397 -79.0939 193° South 449 517 40,000  Level Miami Center
Sat 06:19:40 PM 29.9161 -79.1344 196° South 449 517 40,000  Level Miami Center
Sat 06:20:40 PM 29.7928 -79.1631 191° South 449 517 40,000  Level Miami Center
Sat 06:21:40 PM 29.6733 -79.1914 192° South 444 511 40,000  Level Miami Center
Sat 06:22:40 PM 29.5558 -79.2272 195° South 449 517 40,000  Level Miami Center
Sat 06:23:40 PM 29.4344 -79.2556 191° South 450 518 40,000  Level Miami Center
Sat 06:24:40 PM 29.3131 -79.2836 191° South 444 511 40,000  Level Miami Center
Sat 06:25:40 PM 29.1914 -79.3167 193° South 444 511 40,000  Level Miami Center
Sat 06:26:40 PM 29.0761 -79.3475 193° South 444 511 40,000  Level Miami Center
Sat 06:27:40 PM 28.9547 -79.3731 190° South 444 511 40,000  Level Miami Center
Sat 06:28:40 PM 28.8353 -79.4011 192° South 444 511 40,000  Level Miami Center
Sat 06:29:40 PM 28.7158 -79.4317 193° South 444 511 40,000  Level Miami Center
Sat 06:30:40 PM 28.5983 -79.4619 193° South 444 511 40,000 -200 Level Miami Center
Sat 06:31:40 PM 28.4831 -79.4925 193° South 439 505 39,600 -700 Descending Miami Center
Sat 06:32:40 PM 28.3636 -79.5203 192° South 434 499 38,600 -1,000 Descending Miami Center
Sat 06:33:40 PM 28.2461 -79.5481 192° South 434 499 37,600 -950 Descending Miami Center
Sat 06:34:40 PM 28.1247 -79.5783 192° South 434 499 36,700 -950 Descending Miami Center
Sat 06:35:40 PM 28.0050 -79.6058 191° South 439 505 35,700 -1,000 Descending Miami Center
Sat 06:36:40 PM 27.8981 -79.6317 192° South 439 505 34,700 -1,700 Descending Miami Center
Sat 06:37:40 PM 27.7786 -79.6639 193° South 419 482 32,300 -2,150 Descending Miami Center
Sat 06:38:40 PM 27.6653 -79.6917 192° South 411 473 30,400 -1,900 Descending Miami Center
Sat 06:39:40 PM 27.5786 -79.7361 204° Southwest 380 437 28,500 -1,650 Descending Miami Center
Sat 06:40:40 PM 27.5161 -79.8331 234° Southwest 375 432 27,100 -1,300 Descending Miami Center
Sat 06:41:40 PM 27.4536 -79.9319 235° Southwest 385 443 25,900 -1,050 Descending Miami Center
Sat 06:42:40 PM 27.3594 -79.9367 183° South 335 386 25,000 -900 Descending Miami Center
Sat 06:43:40 PM 27.2622 -79.8919 158° South 317 365 24,100 -600 Descending Miami Center
Sat 06:44:40 PM 27.1672 -79.8475 157° South 343 395 23,800 -1,800 Descending Miami Center
Sat 06:45:40 PM 27.0678 -79.8097 161° South 362 417 20,500 -2,750 Descending Miami Center
Sat 06:46:40 PM 26.9578 -79.7675 161° South 377 434 18,300 -2,300 Descending Miami Center
Sat 06:47:40 PM 26.8647 -79.7303 160° South 377 434 15,900 -1,650 Descending Miami Center
Sat 06:48:40 PM 26.7797 -79.6978 161° South 363 418 15,000 -909 Descending Miami Center
Sat 06:49:19 PM 26.7169 -79.7011 183° South 309 356 14,400 -2,122 Descending Miami Center
Sat 06:50:02 PM 26.6494 -79.7342 204° Southwest 334 384 12,100 -2,444 Descending Miami Center
Sat 06:50:40 PM 26.6072 -79.7542 203° Southwest 339 390 11,100 -1,347 Descending Miami Center
Sat 06:51:40 PM 26.5144 -79.7958 202° Southwest 336 387 9,900 -1,550 Descending Miami Center
Sat 06:52:40 PM 26.4428 -79.8289 202° Southwest 315 362 8,000 -1,000 Descending Miami Center
Sat 06:53:40 PM 26.3647 -79.8758 208° Southwest 302 348 7,900 -500 Descending Miami Center
Sat 06:54:40 PM 26.3050 -79.9322 220° Southwest 296 341 7,000 -450 Descending Miami Center
Sat 06:55:40 PM 26.2517 -79.9817 220° Southwest 279 321 7,000 -450 Level Miami Center
Sat 06:56:40 PM 26.2006 -80.0336 222° Southwest 258 297 6,100 -667 Descending Miami Center
Sat 06:57:10 PM 26.1767 -80.0653 230° Southwest 249 287 6,000 -100 Descending Miami Center
Sat 06:57:40 PM 26.1678 -80.0975 253° West 248 285 6,000  Level Miami Center
Sat 06:58:10 PM 26.1567 -80.1297 249° West 214 246 6,000 -500 Level Miami Center
Sat 06:58:40 PM 26.1517 -80.1597 259° West 225 259 5,500 -934 Descending Miami Center
Sat 07:00:12 PM 26.1472 -80.2636 267° West 201 231 4,100 -938 Descending Miami Center
Sat 07:01:20 PM 26.1333 -80.3281 257° West 202 232 3,000 -872 Descending Miami Center
Sat 07:02:09 PM 26.0933 -80.3361 190° South 170 196 2,400 -517 Descending Miami Center
Sat 07:03:16 PM 26.0736 -80.2892 115° Southeast 158 182 2,000 -541 Descending Miami Center
Sat 07:04:11 PM 26.0744 -80.2478 89° East 145 167 1,300 -678 Descending Miami Center
Sat 07:05:11 PM 26.0753 -80.2083 89° East 123 142 700 -600 Descending Miami Center
Sat 07:07:00 PM 26.0667 -80.1500 103° East  Level FlightAware Approximate
Sat 07:14:00 PM 26.0726 -80.1527 103° East  Level Estimated

Login

Don't have an account? Register now (free) for customized features, flight alerts, and more!